Time;durP1;ratioP1;P1;durP2;ratioP2;P2;SDS_P1;SDS_P2;PMS_P1;PMS_P2;Temp;Humidity;BMP_temperature;BMP_pressure;BME280_temperature;BME280_humidity;BME280_pressure;Samples;Min_cycle;Max_cycle;Signal;HPM_P1;HPM_P2
2020/12/09 00:00:59;;;;;;;22.88;12.27;;;;;;;2.58;74.94;98821.94;3854087;22;20024;-80
2020/12/09 00:02:30;;;;;;;27.40;14.32;;;;;;;2.60;74.86;98825.25;3863026;23;20044;-79
2020/12/09 00:04:02;;;;;;;27.20;14.38;;;;;;;2.63;74.81;98836.44;3863322;22;20013;-80
2020/12/09 00:05:34;;;;;;;25.73;12.93;;;;;;;2.67;74.61;98823.81;3864336;23;20025;-80
2020/12/09 00:07:05;;;;;;;28.58;15.57;;;;;;;2.63;74.65;98830.28;3864677;22;20032;-80
2020/12/09 00:08:36;;;;;;;24.55;12.65;;;;;;;2.71;74.51;98824.41;3864619;23;20028;-79
2020/12/09 00:10:08;;;;;;;25.60;13.50;;;;;;;2.73;74.53;98825.94;3855078;22;20107;-80
2020/12/09 00:11:40;;;;;;;26.33;14.68;;;;;;;2.68;74.45;98827.28;3857013;23;20031;-80
2020/12/09 00:13:11;;;;;;;24.95;13.55;;;;;;;2.68;74.71;98830.78;3849349;22;20039;-80
2020/12/09 00:14:42;;;;;;;25.50;13.43;;;;;;;2.67;74.66;98830.88;3856238;23;20366;-80
2020/12/09 00:16:14;;;;;;;25.10;13.38;;;;;;;2.71;74.75;98834.97;3853348;22;20012;-80
2020/12/09 00:17:45;;;;;;;25.08;13.50;;;;;;;2.76;74.32;98841.53;3856962;23;20360;-80
2020/12/09 00:19:17;;;;;;;23.45;13.55;;;;;;;2.75;74.57;98841.66;3854701;22;20031;-80
2020/12/09 00:20:49;;;;;;;26.27;14.68;;;;;;;2.70;74.62;98834.09;3860554;23;20031;-79
2020/12/09 00:22:20;;;;;;;26.67;14.20;;;;;;;2.71;74.56;98842.88;3862634;22;20234;-80
2020/12/09 00:23:53;;;;;;;26.27;13.32;;;;;;;2.69;74.59;98832.47;3873502;23;20068;-79
2020/12/09 00:25:25;;;;;;;26.00;14.48;;;;;;;2.67;74.68;98836.16;3869793;22;20012;-79
2020/12/09 00:26:57;;;;;;;26.52;14.57;;;;;;;2.67;74.74;98839.66;3872596;23;20029;-79
2020/12/09 00:28:28;;;;;;;21.70;11.98;;;;;;;2.73;74.60;98835.69;3870870;22;20012;-79
2020/12/09 00:30:02;;;;;;;16.65;9.10;;;;;;;2.81;74.59;98835.91;3872095;23;20068;-79
2020/12/09 00:31:34;;;;;;;19.17;10.38;;;;;;;2.82;74.37;98832.28;3869883;22;20028;-80
2020/12/09 00:33:05;;;;;;;19.63;10.43;;;;;;;2.89;74.28;98844.03;3871377;23;20016;-80
2020/12/09 00:34:37;;;;;;;22.80;11.05;;;;;;;2.89;74.47;98843.16;3865232;22;20068;-79
2020/12/09 00:36:09;;;;;;;27.00;15.40;;;;;;;2.92;74.45;98838.50;3867496;23;20031;-80
2020/12/09 00:37:40;;;;;;;23.60;12.95;;;;;;;2.97;74.40;98840.75;3861928;22;20020;-80
2020/12/09 00:39:12;;;;;;;25.45;13.82;;;;;;;2.96;74.39;98839.91;3867790;23;20080;-80
2020/12/09 00:40:44;;;;;;;22.17;11.63;;;;;;;3.02;74.35;98840.38;3859935;22;20035;-80
2020/12/09 00:42:16;;;;;;;23.15;12.35;;;;;;;3.08;74.29;98843.34;3859225;23;20020;-80
2020/12/09 00:43:47;;;;;;;26.70;15.13;;;;;;;3.01;74.36;98838.72;3855678;22;20481;-80
2020/12/09 00:45:18;;;;;;;28.20;14.65;;;;;;;2.93;74.49;98837.50;3857467;23;20020;-79
2020/12/09 00:46:50;;;;;;;28.50;15.55;;;;;;;2.92;74.59;98843.78;3856259;22;20025;-80
2020/12/09 00:48:22;;;;;;;28.00;14.88;;;;;;;2.84;74.95;98843.53;3855654;23;20020;-79
2020/12/09 00:51:40;;;;;;;26.45;14.80;;;;;;;2.79;75.15;98843.09;3854271;22;20103;-80
2020/12/09 00:53:11;;;;;;;26.58;14.13;;;;;;;2.84;74.97;98840.06;3854816;23;20021;-79
2020/12/09 00:54:43;;;;;;;24.65;12.68;;;;;;;2.88;75.03;98837.06;3853023;22;20025;-79
2020/12/09 00:56:14;;;;;;;22.60;12.68;;;;;;;3.00;74.76;98839.66;3854939;23;20029;-80
2020/12/09 00:57:46;;;;;;;24.58;14.25;;;;;;;2.87;75.09;98835.38;3853796;22;20028;-79
2020/12/09 00:59:17;;;;;;;27.02;14.00;;;;;;;2.87;74.95;98839.84;3854654;23;20032;-80
2020/12/09 01:00:48;;;;;;;24.60;13.82;;;;;;;2.76;75.33;98851.25;3852592;22;20040;-79
2020/12/09 01:02:20;;;;;;;28.70;16.40;;;;;;;2.72;75.61;98844.56;3856676;23;20136;-80
2020/12/09 01:03:51;;;;;;;31.17;16.88;;;;;;;2.62;75.80;98849.72;3853650;22;20032;-79
2020/12/09 01:05:23;;;;;;;27.30;15.63;;;;;;;2.61;75.90;98851.53;3860098;23;20028;-80
2020/12/09 01:06:55;;;;;;;28.23;15.90;;;;;;;2.55;76.06;98852.00;3854842;23;20442;-80
2020/12/09 01:08:26;;;;;;;25.42;15.57;;;;;;;2.54;76.33;98850.34;3855060;23;20358;-79
2020/12/09 01:09:57;;;;;;;25.50;14.07;;;;;;;2.61;76.21;98861.25;3851436;22;20024;-80
2020/12/09 01:11:28;;;;;;;;;;;;;;;2.40;77.01;98864.66;3857126;23;20021;-80
2020/12/09 01:12:59;;;;;;;27.65;15.77;;;;;;;2.47;77.06;98863.19;3850409;22;21191;-79
2020/12/09 01:14:31;;;;;;;33.00;15.30;;;;;;;2.52;76.86;98857.56;3854467;23;20030;-80
2020/12/09 01:16:02;;;;;;;30.42;16.75;;;;;;;2.48;76.61;98858.75;3852008;22;20035;-79
2020/12/09 01:17:33;;;;;;;27.77;15.25;;;;;;;2.52;76.51;98857.56;3855161;23;20017;-79
2020/12/09 01:19:04;;;;;;;;;;;;;;;2.42;77.20;98859.25;3853335;22;20021;-80
2020/12/09 01:20:36;;;;;;;29.48;15.65;;;;;;;2.41;77.25;98854.94;3854464;23;19926;-80
2020/12/09 01:22:07;;;;;;;28.42;15.38;;;;;;;2.42;76.71;98849.50;3854561;22;20032;-80
2020/12/09 01:23:38;;;;;;;;;;;;;;;2.31;77.41;98853.00;3855728;23;20020;-80
2020/12/09 01:25:11;;;;;;;34.35;16.42;;;;;;;2.36;77.06;98862.38;3853171;22;19992;-80
2020/12/09 01:26:43;;;;;;;28.35;16.67;;;;;;;2.36;77.08;98857.09;3855787;23;20331;-80
2020/12/09 01:28:14;;;;;;;31.52;16.02;;;;;;;2.37;77.06;98850.84;3862948;22;20028;-78
2020/12/09 01:30:00;;;;;;;28.33;13.75;;;;;;;2.39;77.74;98862.13;3872503;23;20009;-80
2020/12/09 01:31:31;;;;;;;21.48;11.20;;;;;;;2.51;77.13;98861.16;3869994;22;20027;-80
2020/12/09 01:33:02;;;;;;;20.90;10.57;;;;;;;2.60;76.70;98863.06;3871297;23;20068;-79
2020/12/09 01:34:33;;;;;;;22.00;10.23;;;;;;;2.68;76.28;98858.94;3863932;22;20008;-81
2020/12/09 01:36:05;;;;;;;;;;;;;;;2.56;76.92;98858.97;3856342;23;20027;-80
2020/12/09 01:37:36;;;;;;;26.08;12.75;;;;;;;2.62;76.73;98855.84;3852289;22;19923;-79
2020/12/09 01:39:09;;;;;;;26.38;13.25;;;;;;;2.65;76.77;98863.50;3855118;23;20032;-80
2020/12/09 01:40:40;;;;;;;24.00;12.60;;;;;;;2.67;76.70;98863.41;3852538;22;20111;-80
2020/12/09 01:42:12;;;;;;;27.30;14.48;;;;;;;2.69;76.83;98858.00;3855492;23;20035;-80
2020/12/09 01:43:44;;;;;;;25.40;13.43;;;;;;;2.65;76.93;98855.59;3853041;22;20024;-80
2020/12/09 01:45:17;;;;;;;24.35;13.32;;;;;;;2.64;76.69;98853.94;3854162;23;20031;-80
2020/12/09 01:46:48;;;;;;;28.95;14.95;;;;;;;2.67;76.75;98859.91;3853748;22;20021;-81
2020/12/09 01:48:20;;;;;;;29.30;14.75;;;;;;;2.65;76.69;98849.50;3855506;23;20051;-80
2020/12/09 01:49:52;;;;;;;24.77;14.20;;;;;;;2.60;77.11;98851.63;3854176;22;20020;-80
2020/12/09 01:51:26;;;;;;;25.02;14.75;;;;;;;2.58;76.95;98851.78;3855833;23;20025;-80
2020/12/09 01:52:58;;;;;;;29.13;15.13;;;;;;;2.60;77.03;98854.28;3854050;22;20103;-80
2020/12/09 01:54:29;;;;;;;32.28;17.13;;;;;;;2.56;77.02;98852.88;3855712;23;20024;-80
2020/12/09 01:56:01;;;;;;;28.08;15.90;;;;;;;2.50;77.17;98859.47;3852251;22;20025;-80
2020/12/09 01:57:32;;;;;;;28.83;15.77;;;;;;;2.53;77.24;98861.00;3855511;23;20024;-80
2020/12/09 01:59:04;;;;;;;29.65;16.13;;;;;;;2.55;77.18;98857.28;3851765;23;20600;-80
2020/12/09 02:00:36;;;;;;;30.45;16.33;;;;;;;2.53;77.32;98859.22;3854796;23;20020;-80
2020/12/09 02:02:08;;;;;;;28.58;15.70;;;;;;;2.53;77.26;98869.78;3852406;22;20107;-80
2020/12/09 02:03:40;;;;;;;25.27;14.52;;;;;;;2.63;76.85;98860.19;3853699;22;20029;-81
2020/12/09 02:05:11;;;;;;;29.42;14.48;;;;;;;2.65;77.00;98870.59;3853248;23;20028;-80
2020/12/09 02:06:44;;;;;;;26.50;13.40;;;;;;;2.70;76.69;98873.69;3851480;23;20553;-79
2020/12/09 02:08:16;;;;;;;28.55;15.82;;;;;;;2.64;76.71;98872.41;3856326;23;20027;-79
2020/12/09 02:09:57;;;;;;;27.00;14.10;;;;;;;2.62;76.75;98874.31;3853824;23;20021;-80
2020/12/09 02:11:28;;;;;;;23.98;13.40;;;;;;;2.70;76.76;98876.34;3855696;23;20021;-80
2020/12/09 02:12:59;;;;;;;26.83;14.48;;;;;;;2.75;76.73;98875.97;3848355;22;20028;-80
2020/12/09 02:14:30;;;;;;;22.65;12.10;;;;;;;2.87;76.38;98879.44;3856053;23;20031;-80
2020/12/09 02:16:01;;;;;;;27.75;14.18;;;;;;;2.93;76.08;98873.66;3852186;22;20024;-79
2020/12/09 02:17:33;;;;;;;20.67;10.70;;;;;;;2.97;75.89;98877.72;3856388;23;20021;-79
2020/12/09 02:19:04;;;;;;;22.90;12.35;;;;;;;3.04;75.83;98885.97;3853284;22;20349;-79
2020/12/09 02:20:35;;;;;;;;;;;;;;;2.94;75.51;98881.44;3856205;23;20032;-80
2020/12/09 02:22:10;;;;;;;23.30;12.52;;;;;;;2.94;75.64;98884.06;3854119;22;19973;-79
2020/12/09 02:23:42;;;;;;;27.55;14.30;;;;;;;2.89;75.94;98880.97;3854903;23;20087;-80
2020/12/09 02:25:13;;;;;;;21.15;10.93;;;;;;;2.99;75.80;98880.25;3852339;22;20028;-79
2020/12/09 02:26:45;;;;;;;24.88;13.55;;;;;;;2.95;75.97;98874.38;3854320;23;20024;-80
2020/12/09 02:28:17;;;;;;;28.17;15.15;;;;;;;2.91;75.81;98880.84;3854043;22;20561;-80
2020/12/09 02:29:48;;;;;;;24.27;13.57;;;;;;;2.92;75.90;98887.81;3854955;23;20028;-79
2020/12/09 02:31:20;;;;;;;23.42;13.32;;;;;;;2.96;75.87;98886.63;3853118;22;20028;-79
2020/12/09 02:32:52;;;;;;;26.02;14.82;;;;;;;2.92;76.09;98899.22;3856003;23;20140;-80
2020/12/09 02:34:23;;;;;;;33.90;17.73;;;;;;;2.85;76.03;98902.47;3854746;22;20077;-79
2020/12/09 02:35:57;;;;;;;28.83;16.70;;;;;;;2.81;76.08;98909.81;3859741;23;20024;-79
2020/12/09 02:37:30;;;;;;;31.92;16.20;;;;;;;2.80;76.21;98908.13;3865853;22;20028;-79
2020/12/09 02:39:02;;;;;;;24.02;12.65;;;;;;;2.85;76.23;98916.50;3870156;23;20416;-79
2020/12/09 02:40:34;;;;;;;27.33;14.50;;;;;;;2.91;75.90;98913.38;3867429;22;20024;-80
2020/12/09 02:42:06;;;;;;;26.60;14.70;;;;;;;2.85;76.09;98911.22;3868840;23;20025;-80
2020/12/09 02:43:36;;;;;;;30.15;15.48;;;;;;;2.84;76.05;98917.47;3867963;22;20023;-80
2020/12/09 02:45:08;;;;;;;27.00;15.40;;;;;;;2.82;76.26;98922.03;3869519;23;20032;-79
2020/12/09 02:46:39;;;;;;;28.05;15.13;;;;;;;2.85;76.27;98921.78;3866738;22;20024;-80
2020/12/09 02:48:10;;;;;;;28.15;16.27;;;;;;;2.85;76.44;98927.06;3870120;23;20039;-80
2020/12/09 02:49:42;;;;;;;27.00;15.07;;;;;;;2.88;76.27;98921.53;3868245;22;20092;-80
2020/12/09 02:51:13;;;;;;;28.17;15.57;;;;;;;2.91;76.32;98916.03;3869844;23;20028;-80
2020/12/09 02:52:45;;;;;;;29.08;16.90;;;;;;;2.86;76.31;98923.47;3867797;22;20020;-80
2020/12/09 02:54:16;;;;;;;27.52;15.70;;;;;;;2.79;76.26;98912.53;3860950;23;20025;-80
2020/12/09 02:55:49;;;;;;;31.85;16.20;;;;;;;2.84;76.45;98927.19;3853867;22;20020;-80
2020/12/09 02:57:20;;;;;;;28.48;16.08;;;;;;;2.85;76.33;98927.06;3855910;23;20025;-80
2020/12/09 02:58:51;;;;;;;32.85;16.75;;;;;;;2.80;76.56;98918.69;3852893;22;20700;-79
2020/12/09 03:00:23;;;;;;;28.00;14.48;;;;;;;2.88;76.62;98931.28;3856195;23;20024;-79
2020/12/09 03:01:54;;;;;;;24.70;14.05;;;;;;;2.94;76.22;98931.59;3852665;22;20029;-79
2020/12/09 03:03:25;;;;;;;24.02;13.70;;;;;;;3.00;76.08;98937.38;3856860;23;20032;-80
2020/12/09 03:04:56;;;;;;;;;;;;;;;2.89;76.56;98933.78;3853227;22;20434;-80
2020/12/09 03:06:29;;;;;;;25.67;12.60;;;;;;;2.99;76.20;98933.03;3855996;23;19931;-79
2020/12/09 03:08:01;;;;;;;25.77;13.82;;;;;;;3.02;75.98;98932.81;3853431;22;20063;-80
2020/12/09 03:09:32;;;;;;;26.67;14.45;;;;;;;3.01;75.95;98939.88;3856735;23;20024;-80
2020/12/09 03:11:06;;;;;;;28.63;15.70;;;;;;;2.98;76.21;98932.19;3857739;22;20025;-80
2020/12/09 03:12:37;;;;;;;26.35;14.85;;;;;;;3.00;76.14;98930.28;3854350;23;20036;-80
2020/12/09 03:14:08;;;;;;;27.95;15.02;;;;;;;3.02;76.37;98935.44;3864470;22;20024;-80
2020/12/09 03:15:39;;;;;;;25.92;15.70;;;;;;;3.03;76.35;98943.25;3864337;22;20021;-80
2020/12/09 03:17:10;;;;;;;29.25;15.85;;;;;;;3.01;76.41;98933.75;3861927;23;20705;-79
2020/12/09 03:20:41;;;;;;;24.00;13.88;;;;;;;3.05;76.37;98932.53;3863490;23;20033;-79
2020/12/09 03:22:46;;;;;;;23.42;12.93;;;;;;;3.09;76.34;98929.53;3823652;23;20110;-80
2020/12/09 03:24:19;;;;;;;26.92;15.32;;;;;;;3.12;76.12;98933.72;3831006;23;20719;-80
2020/12/09 03:26:46;;;;;;;28.20;15.27;;;;;;;3.11;76.07;98940.81;3831788;22;20298;-79
2020/12/09 03:28:17;;;;;;;29.83;16.05;;;;;;;3.14;76.30;98941.53;3848970;22;20023;-80
2020/12/09 03:29:49;;;;;;;29.92;15.65;;;;;;;3.17;76.22;98944.75;3849852;23;20025;-80
2020/12/09 03:31:20;;;;;;;30.33;17.02;;;;;;;3.22;76.29;98945.22;3832277;22;20035;-80
2020/12/09 03:32:52;;;;;;;28.45;15.07;;;;;;;3.17;76.49;98947.41;3835436;23;20033;-80
2020/12/09 03:36:49;;;;;;;26.05;14.65;;;;;;;3.20;76.49;98952.44;3824198;22;20016;-81
2020/12/09 03:38:20;;;;;;;28.80;16.38;;;;;;;3.26;76.27;98959.00;3852532;23;20028;-78
2020/12/09 03:42:19;;;;;;;30.42;16.23;;;;;;;3.18;76.19;98957.00;3850472;23;20092;-80
2020/12/09 03:46:18;;;;;;;28.95;14.90;;;;;;;3.15;76.35;98956.41;3847739;22;20020;-80
2020/12/09 03:47:49;;;;;;;27.52;15.73;;;;;;;3.16;76.59;98961.56;3855597;23;20020;-80
2020/12/09 03:49:20;;;;;;;28.90;15.10;;;;;;;3.13;76.59;98945.97;3853272;22;20029;-79
2020/12/09 03:50:52;;;;;;;25.52;14.43;;;;;;;3.23;76.34;98956.63;3854744;23;20024;-79
2020/12/09 03:52:23;;;;;;;27.63;13.90;;;;;;;3.28;76.32;98954.44;3853269;22;20031;-80
2020/12/09 03:53:55;;;;;;;24.85;13.95;;;;;;;3.25;76.38;98952.91;3857881;23;20035;-80
2020/12/09 03:55:25;;;;;;;27.52;14.15;;;;;;;3.23;76.31;98957.47;3865558;22;20020;-79
2020/12/09 03:56:57;;;;;;;29.92;15.18;;;;;;;3.25;76.61;98955.53;3871525;23;20036;-80
2020/12/09 03:58:29;;;;;;;24.55;13.90;;;;;;;3.26;76.31;98954.56;3868284;22;20013;-80
2020/12/09 04:00:00;;;;;;;27.20;14.82;;;;;;;3.25;76.46;98955.53;3857672;23;20039;-79
2020/12/09 04:01:31;;;;;;;28.20;14.52;;;;;;;3.25;76.50;98955.53;3842212;22;20470;-80
2020/12/09 04:03:03;;;;;;;26.02;14.82;;;;;;;3.26;76.36;98956.38;3847076;23;20035;-79
2020/12/09 04:04:36;;;;;;;31.00;16.70;;;;;;;3.23;76.33;98952.19;3847534;22;20025;-79
2020/12/09 04:06:07;;;;;;;32.05;16.38;;;;;;;3.18;76.58;98954.38;3854291;23;20024;-80
2020/12/09 04:07:39;;;;;;;27.50;16.13;;;;;;;3.10;76.69;98951.50;3853051;22;20028;-79
2020/12/09 04:09:11;;;;;;;32.90;15.68;;;;;;;3.08;76.84;98959.53;3855875;23;20476;-80
2020/12/09 04:13:55;;;;;;;25.92;13.52;;;;;;;3.02;77.07;98946.84;3844574;22;20017;-79
2020/12/09 04:15:28;;;;;;;24.02;12.38;;;;;;;3.08;76.79;98945.50;3846235;23;20032;-79
2020/12/09 04:17:17;;;;;;;25.60;13.68;;;;;;;3.10;76.96;98952.34;3851175;22;20020;-79
2020/12/09 04:18:48;;;;;;;27.58;15.05;;;;;;;3.08;77.27;98948.97;3844536;23;20017;-79
2020/12/09 04:20:20;;;;;;;28.65;15.27;;;;;;;3.03;77.16;98942.38;3850344;23;20024;-79
2020/12/09 04:22:28;;;;;;;28.60;15.45;;;;;;;2.91;77.41;98945.06;3852571;22;20087;-79
2020/12/09 04:30:34;;;;;;;29.67;14.60;;;;;;;2.83;78.16;98951.91;3816611;23;20063;-83
2020/12/09 04:33:01;;;;;;;28.10;15.48;;;;;;;2.79;78.26;98948.69;3867805;22;20024;-82
2020/12/09 04:37:35;;;;;;;25.42;13.02;;;;;;;2.85;78.37;98948.19;3793346;23;20034;-81
2020/12/09 04:42:26;;;;;;;27.30;14.02;;;;;;;2.74;79.09;98951.69;3725729;23;20017;-86
2020/12/09 04:44:01;;;;;;;31.27;15.95;;;;;;;2.72;78.79;98950.13;3834957;23;20029;-82
2020/12/09 04:45:35;;;;;;;32.72;16.63;;;;;;;2.72;79.21;98963.31;3845259;23;20021;-83
2020/12/09 04:47:55;;;;;;;30.25;15.88;;;;;;;2.63;79.40;98957.81;3865498;22;20017;-87
2020/12/09 04:49:40;;;;;;;30.50;14.70;;;;;;;2.67;79.53;98960.19;3853990;23;20040;-83
2020/12/09 04:51:29;;;;;;;30.17;15.98;;;;;;;2.64;79.76;98966.56;3866035;23;20068;-83
2020/12/09 04:53:07;;;;;;;27.27;16.00;;;;;;;2.68;79.51;98970.66;3851305;23;20025;-83
2020/12/09 04:54:40;;;;;;;29.92;15.85;;;;;;;2.68;79.39;98968.00;3857335;23;20080;-82
2020/12/09 04:56:25;;;;;;;28.85;15.98;;;;;;;2.70;79.41;98976.63;3854764;23;20031;-81
2020/12/09 04:58:14;;;;;;;33.13;16.30;;;;;;;2.63;79.58;98975.44;3854646;23;20040;-84
2020/12/09 04:59:56;;;;;;;28.90;15.95;;;;;;;2.63;79.59;98981.56;3856854;23;20059;-81
2020/12/09 05:01:33;;;;;;;25.10;13.93;;;;;;;2.62;79.63;98979.88;3853428;22;20464;-83
2020/12/09 05:03:14;;;;;;;30.27;16.40;;;;;;;2.62;79.64;98974.59;3856406;23;20025;-82
2020/12/09 05:04:45;;;;;;;31.70;16.45;;;;;;;2.61;79.73;98980.84;3852617;23;20021;-82
2020/12/09 05:06:20;;;;;;;30.67;16.70;;;;;;;2.61;79.43;98979.97;3855190;23;20638;-83
2020/12/09 05:07:52;;;;;;;31.17;16.00;;;;;;;2.59;79.59;98979.28;3853941;23;20024;-82
2020/12/09 05:10:16;;;;;;;28.35;15.38;;;;;;;2.54;79.63;98981.44;3855881;23;20021;-82
2020/12/09 05:11:47;;;;;;;31.48;17.38;;;;;;;2.54;79.85;98982.28;3852698;23;20035;-82
2020/12/09 05:13:23;;;;;;;28.85;15.80;;;;;;;2.55;79.63;98981.31;3854582;23;20020;-81
2020/12/09 05:14:58;;;;;;;20.63;11.05;;;;;;;2.62;79.67;98979.88;3859097;23;20031;-81
2020/12/09 05:19:01;;;;;;;28.60;14.63;;;;;;;2.61;79.72;98991.41;3855827;23;20016;-83
2020/12/09 05:20:35;;;;;;;33.58;16.38;;;;;;;2.59;79.59;98989.84;3859534;23;20139;-81
2020/12/09 05:22:14;;;;;;;28.63;14.63;;;;;;;2.60;79.76;98995.00;3857338;22;20025;-81
2020/12/09 05:23:47;;;;;;;32.78;18.00;;;;;;;2.53;79.86;98991.16;3860210;23;20020;-81
2020/12/09 05:25:20;;;;;;;32.20;17.40;;;;;;;2.55;79.94;98991.84;3857868;23;20012;-82
2020/12/09 05:26:51;;;;;;;34.95;18.05;;;;;;;2.57;79.89;98992.59;3856104;23;20024;-81
2020/12/09 05:28:22;;;;;;;28.35;14.85;;;;;;;2.59;80.01;98990.66;3855302;22;20027;-81
2020/12/09 05:29:53;;;;;;;;;;;;;;;2.49;80.20;98997.63;3859614;23;20027;-81
2020/12/09 05:31:23;;;;;;;31.48;17.05;;;;;;;2.53;80.13;98996.44;3859425;23;19916;-84
2020/12/09 05:32:55;;;;;;;;;;;;;;;2.47;80.51;98995.09;3864602;23;20458;-84
2020/12/09 05:39:21;;;;;;;29.85;14.77;;;;;;;2.55;79.96;99009.50;3862372;23;20448;-83
2020/12/09 05:40:54;;;;;;;31.90;17.30;;;;;;;2.57;80.13;99010.22;3846684;22;20029;-82
2020/12/09 05:42:26;;;;;;;29.80;16.10;;;;;;;2.57;79.91;99015.50;3862394;23;20024;-82
2020/12/09 05:44:00;;;;;;;28.25;14.98;;;;;;;2.61;79.69;99020.44;3858370;23;20031;-83
2020/12/09 05:46:19;;;;;;;30.35;17.27;;;;;;;2.57;79.46;99012.88;3863720;23;20043;-82
2020/12/09 05:48:11;;;;;;;33.63;17.70;;;;;;;2.46;80.06;99008.41;3863562;23;20021;-82
2020/12/09 05:52:56;;;;;;;31.35;14.85;;;;;;;2.47;80.03;99007.44;3864545;22;20194;-83
2020/12/09 05:54:27;;;;;;;34.08;17.95;;;;;;;2.45;80.30;99014.66;3864187;23;20020;-83
2020/12/09 05:56:12;;;;;;;30.00;15.65;;;;;;;2.49;79.97;99016.09;3862779;23;20013;-82
2020/12/09 05:57:44;;;;;;;34.08;18.75;;;;;;;2.53;79.94;99014.91;3863555;22;20016;-84
2020/12/09 05:59:30;;;;;;;25.63;13.77;;;;;;;2.59;79.72;99021.50;3864292;23;20025;-82
2020/12/09 06:01:13;;;;;;;25.73;13.55;;;;;;;2.67;79.58;99015.63;3862960;23;20020;-83
2020/12/09 06:02:45;;;;;;;32.58;16.52;;;;;;;2.68;79.75;99019.94;3865117;23;20072;-83
2020/12/09 06:04:16;;;;;;;31.48;16.17;;;;;;;2.69;79.64;99013.69;3861987;22;20020;-85
2020/12/09 06:06:06;;;;;;;;;;;;;;;2.62;79.60;99011.56;3860626;23;20088;-82
2020/12/09 06:07:38;;;;;;;32.97;16.52;;;;;;;2.58;79.48;99011.91;3857690;23;19920;-86
2020/12/09 06:09:11;;;;;;;32.33;15.68;;;;;;;2.56;79.70;99011.19;3861674;23;20035;-83
2020/12/09 06:11:00;;;;;;;32.63;17.15;;;;;;;2.59;79.62;99017.06;3845548;23;20048;-82
2020/12/09 06:12:48;;;;;;;34.33;18.63;;;;;;;2.62;79.34;99027.38;3837614;23;20021;-83
2020/12/09 06:14:20;;;;;;;37.17;18.83;;;;;;;2.58;79.65;99020.66;3856313;23;20073;-83
2020/12/09 06:15:52;;;;;;;35.40;18.83;;;;;;;2.63;79.50;99020.28;3857974;23;20024;-83
2020/12/09 06:17:23;;;;;;;34.75;17.60;;;;;;;2.64;79.67;99012.28;3860533;23;20012;-82
2020/12/09 06:18:56;;;;;;;33.38;16.58;;;;;;;2.64;79.39;99019.34;3859081;23;20128;-81
2020/12/09 06:20:29;;;;;;;31.98;17.88;;;;;;;2.65;79.60;99021.84;3860373;23;20043;-82
2020/12/09 06:22:02;;;;;;;32.63;17.02;;;;;;;2.69;79.27;99022.47;3854576;23;20472;-81
2020/12/09 06:23:34;;;;;;;30.30;16.67;;;;;;;2.69;79.42;99024.25;3862319;23;20020;-81
2020/12/09 06:25:06;;;;;;;32.28;17.25;;;;;;;2.73;79.28;99031.00;3859999;23;20473;-81
2020/12/09 06:26:38;;;;;;;32.95;17.98;;;;;;;2.79;79.10;99038.44;3862684;23;20017;-83
2020/12/09 06:28:10;;;;;;;30.80;17.67;;;;;;;2.76;79.13;99031.59;3856162;23;20013;-82
2020/12/09 06:29:45;;;;;;;28.35;16.55;;;;;;;2.80;79.04;99034.81;3846468;23;20032;-83
2020/12/09 06:31:20;;;;;;;30.55;16.23;;;;;;;2.80;79.23;99034.81;3850039;23;20017;-82
2020/12/09 06:32:51;;;;;;;34.22;17.75;;;;;;;2.79;79.01;99039.25;3863445;23;20021;-81
2020/12/09 06:34:22;;;;;;;;;;;;;;;2.73;79.17;99031.00;3854187;23;20017;-81
2020/12/09 06:36:40;;;;;;;26.23;13.48;;;;;;;2.85;78.92;99037.94;3858751;23;19915;-83
2020/12/09 06:38:15;;;;;;;24.00;13.50;;;;;;;2.93;78.50;99042.63;3876810;22;20020;-83
2020/12/09 06:44:49;;;;;;;23.92;13.52;;;;;;;2.99;78.30;99043.94;3880487;23;20016;-83
2020/12/09 06:46:38;;;;;;;32.20;16.23;;;;;;;2.99;78.31;99038.66;3876718;23;20413;-85
2020/12/09 06:50:35;;;;;;;23.48;14.10;;;;;;;3.07;78.33;99047.63;3877049;23;20020;-82
2020/12/09 06:52:36;;;;;;;27.38;15.13;;;;;;;3.07;77.92;99049.47;3880342;23;20015;-82
2020/12/09 06:57:13;;;;;;;25.48;13.50;;;;;;;3.16;77.89;99051.38;3825521;23;20244;-82
2020/12/09 06:59:25;;;;;;;24.02;12.82;;;;;;;3.20;77.78;99054.59;3882878;23;20079;-82
2020/12/09 07:01:00;;;;;;;;;;;;;;;3.20;78.11;99057.25;3886104;22;20020;-81
2020/12/09 07:02:32;;;;;;;22.83;12.82;;;;;;;3.30;77.80;99058.19;3889277;23;19949;-82
2020/12/09 07:04:03;;;;;;;29.05;15.77;;;;;;;3.35;77.80;99060.47;3886889;23;20020;-82
2020/12/09 07:05:35;;;;;;;30.33;16.60;;;;;;;3.35;77.68;99056.03;3889613;23;20028;-81
2020/12/09 07:07:05;;;;;;;29.23;14.82;;;;;;;3.43;77.56;99060.69;3886552;22;20028;-83
2020/12/09 07:08:43;;;;;;;;;;;;;;;3.39;77.33;99060.09;3880481;23;20071;-82
2020/12/09 07:10:26;;;;;;;28.85;14.60;;;;;;;3.39;76.94;99067.19;3875508;23;19919;-82
2020/12/09 07:11:58;;;;;;;32.05;16.50;;;;;;;3.30;77.49;99057.38;3877162;23;20071;-83
2020/12/09 07:13:29;;;;;;;32.33;16.08;;;;;;;3.37;77.32;99071.75;3873611;22;20112;-82
2020/12/09 07:15:00;;;;;;;30.08;16.63;;;;;;;3.30;77.43;99078.50;3877505;23;20463;-82
2020/12/09 07:16:33;;;;;;;28.52;16.08;;;;;;;3.30;77.43;99081.16;3875995;23;20024;-81
2020/12/09 07:18:05;;;;;;;24.52;12.65;;;;;;;3.40;77.40;99082.09;3876950;23;20020;-82
2020/12/09 07:19:36;;;;;;;24.85;13.02;;;;;;;3.40;77.41;99076.81;3876070;22;20027;-84
2020/12/09 07:21:08;;;;;;;;;;;;;;;3.26;77.32;99088.44;3883703;23;20103;-83
2020/12/09 07:22:39;;;;;;;29.38;15.90;;;;;;;3.28;77.54;99090.03;3880567;23;20380;-81
2020/12/09 07:24:11;;;;;;;30.02;16.52;;;;;;;3.32;77.45;99084.47;3877042;23;20024;-82
2020/12/09 07:25:42;;;;;;;30.90;17.40;;;;;;;3.26;77.68;99091.94;3875398;22;20024;-81
2020/12/09 07:27:13;;;;;;;31.17;16.45;;;;;;;3.25;77.62;99087.63;3879882;23;20024;-82
2020/12/09 07:28:50;;;;;;;37.22;19.35;;;;;;;3.22;77.83;99089.66;3874107;23;20019;-82
2020/12/09 07:30:22;;;;;;;31.30;18.10;;;;;;;3.23;77.75;99089.53;3875784;23;20020;-82
2020/12/09 07:31:58;;;;;;;31.00;17.55;;;;;;;3.21;78.07;99094.09;3872280;23;20042;-82
2020/12/09 07:33:30;;;;;;;28.95;17.40;;;;;;;3.17;78.14;99095.31;3875560;23;20024;-82
2020/12/09 07:35:04;;;;;;;38.53;19.42;;;;;;;3.19;78.02;99092.53;3872513;23;20027;-82
2020/12/09 07:36:49;;;;;;;28.75;16.77;;;;;;;3.18;78.25;99097.00;3875629;23;20016;-81
2020/12/09 07:38:20;;;;;;;33.13;17.58;;;;;;;3.23;78.17;99100.09;3873480;23;20020;-82
2020/12/09 07:39:53;;;;;;;28.52;15.88;;;;;;;3.29;78.08;99106.69;3874278;23;20016;-82
2020/12/09 07:41:24;;;;;;;26.92;13.75;;;;;;;3.36;77.82;99112.34;3874825;23;20024;-82
2020/12/09 07:43:06;;;;;;;25.90;14.00;;;;;;;3.46;77.66;99115.94;3873535;22;20021;-82
2020/12/09 07:44:41;;;;;;;28.95;15.70;;;;;;;3.44;77.62;99115.22;3876628;23;20421;-82
2020/12/09 07:46:13;;;;;;;28.58;15.57;;;;;;;3.43;77.47;99117.03;3873067;23;20043;-83
2020/12/09 07:47:45;;;;;;;30.95;17.40;;;;;;;3.42;77.78;99118.00;3876376;23;20072;-82
2020/12/09 07:49:16;;;;;;;30.35;16.88;;;;;;;3.40;77.73;99116.44;3872838;22;20020;-82
2020/12/09 07:50:48;;;;;;;;;;;;;;;3.33;78.04;99125.78;3876579;23;20026;-83
2020/12/09 07:52:21;;;;;;;30.13;16.23;;;;;;;3.33;77.99;99120.50;3876868;23;19919;-82
2020/12/09 07:53:52;;;;;;;33.17;17.52;;;;;;;3.34;77.93;99117.78;3877383;23;20102;-82
2020/12/09 07:55:25;;;;;;;31.15;17.27;;;;;;;3.31;77.95;99118.00;3875298;22;20020;-82
2020/12/09 07:56:57;;;;;;;26.88;15.75;;;;;;;3.39;78.04;99120.88;3880987;23;20464;-84
2020/12/09 07:58:29;;;;;;;33.28;17.83;;;;;;;3.42;78.19;99125.06;3877368;23;20020;-82
2020/12/09 08:00:22;;;;;;;32.80;16.98;;;;;;;3.42;77.78;99119.78;3875160;23;20016;-82
2020/12/09 08:02:36;;;;;;;29.70;18.60;;;;;;;3.31;78.05;99127.75;3872951;22;20024;-82
2020/12/09 08:04:46;;;;;;;30.10;16.58;;;;;;;3.33;78.10;99123.16;3871830;23;20016;-82
2020/12/09 08:06:48;;;;;;;29.17;16.40;;;;;;;3.29;78.30;99130.47;3874154;23;20024;-82
2020/12/09 08:08:46;;;;;;;34.35;18.00;;;;;;;3.22;78.43;99124.00;3873940;23;20030;-81
2020/12/09 08:11:19;;;;;;;30.65;17.30;;;;;;;3.18;78.47;99122.56;3872776;23;20102;-81
2020/12/09 08:13:05;;;;;;;31.38;16.90;;;;;;;3.27;78.47;99121.84;3867248;23;20082;-81
2020/12/09 08:14:37;;;;;;;32.50;17.55;;;;;;;3.27;78.27;99130.63;3877653;23;20020;-82